createdAt,value
2019-02-24T00:00:01.936Z,0
2019-02-24T00:01:02.618Z,0.01
2019-02-24T00:02:03.316Z,-0.03
2019-02-24T00:03:04.288Z,0
2019-02-24T00:04:04.424Z,-0.06
2019-02-24T00:05:05.662Z,-0.05
2019-02-24T00:06:06.063Z,0.08
2019-02-24T00:07:07.301Z,0.01
2019-02-24T00:08:08.009Z,0.05
2019-02-24T00:09:08.719Z,0.08
2019-02-24T00:10:09.528Z,0.15
2019-02-24T00:11:11.348Z,0.19
2019-02-24T00:12:12.317Z,0.15
2019-02-24T00:13:13.000Z,0.08
2019-02-24T00:14:14.003Z,0.05
2019-02-24T00:15:14.413Z,0.02
2019-02-24T00:16:14.858Z,-0.03
2019-02-24T00:17:15.261Z,0.02
2019-02-24T00:18:15.667Z,0.06
2019-02-24T00:19:16.371Z,0
2019-02-24T00:20:17.731Z,0.05
2019-02-24T00:21:18.688Z,0.08
2019-02-24T00:22:19.091Z,0.05
2019-02-24T00:23:19.498Z,-0.03
2019-02-24T00:24:20.182Z,-0.18
2019-02-24T00:25:20.310Z,-0.13
2019-02-24T00:26:21.715Z,-0.21
2019-02-24T00:27:22.123Z,-0.26
2019-02-24T00:28:22.806Z,-0.12
2019-02-24T00:29:23.965Z,-0.02
2019-02-24T00:30:24.780Z,-0.12
2019-02-24T00:31:25.185Z,0
2019-02-24T00:32:26.150Z,0.02
2019-02-24T00:33:26.828Z,-0.02
2019-02-24T00:34:27.511Z,-0.02
2019-02-24T00:35:28.473Z,-0.03
2019-02-24T00:36:29.159Z,-0.03
2019-02-24T00:37:29.562Z,-0.13
2019-02-24T00:38:30.690Z,-0.07
2019-02-24T00:39:31.651Z,0.01
2019-02-24T00:40:32.027Z,-0.06
2019-02-24T00:41:32.710Z,-0.09
2019-02-24T00:42:34.676Z,-0.12
2019-02-24T00:43:34.359Z,-0.12
2019-02-24T00:44:35.042Z,-0.03
2019-02-24T00:45:35.444Z,0.02
2019-02-24T00:46:35.850Z,-0.03
2019-02-24T00:47:36.254Z,-0.07
2019-02-24T00:48:36.663Z,0
2019-02-24T00:49:37.788Z,0.09
2019-02-24T00:50:38.347Z,-0.07
2019-02-24T00:51:38.752Z,0.01
2019-02-24T00:52:39.184Z,0.02
2019-02-24T00:53:40.309Z,0.02
2019-02-24T00:54:40.712Z,0
2019-02-24T00:55:41.396Z,0.05
2019-02-24T00:56:42.523Z,0.01
2019-02-24T00:57:44.204Z,0.05
2019-02-24T00:58:44.888Z,0.05
2019-02-24T00:59:45.294Z,-0.03
2019-02-24T01:00:47.011Z,-0.06
2019-02-24T01:01:47.414Z,0.08
2019-02-24T01:02:47.821Z,0.01
2019-02-24T01:03:49.227Z,0.05
2019-02-24T01:04:49.632Z,-0.02
2019-02-24T01:05:50.036Z,-0.05
2019-02-24T01:06:50.453Z,-0.02
2019-02-24T01:07:51.138Z,-0.05
2019-02-24T01:08:51.541Z,0
2019-02-24T01:09:51.948Z,-0.15
2019-02-24T01:10:52.481Z,-0.26
2019-02-24T01:11:53.437Z,-0.26
2019-02-24T01:12:53.565Z,-0.21
2019-02-24T01:13:55.251Z,-0.13
2019-02-24T01:14:55.937Z,-0.1
2019-02-24T01:15:56.619Z,-0.1
2019-02-24T01:16:57.024Z,-0.09
2019-02-24T01:17:57.429Z,-0.09
2019-02-24T01:18:58.110Z,-0.1
2019-02-24T01:19:59.242Z,-0.06
2019-02-24T01:20:59.621Z,-0.09
2019-02-24T01:22:00.749Z,-0.23
2019-02-24T01:23:02.168Z,-0.21
2019-02-24T01:24:02.610Z,-0.23
2019-02-24T01:25:03.292Z,-0.21
2019-02-24T01:26:03.973Z,-0.17
2019-02-24T01:27:04.942Z,-0.24
2019-02-24T01:28:05.073Z,-0.24
2019-02-24T01:29:06.036Z,-0.15
2019-02-24T01:30:06.718Z,-0.17
2019-02-24T01:31:07.826Z,-0.21
2019-02-24T01:32:08.510Z,-0.28
2019-02-24T01:33:09.652Z,-0.27
2019-02-24T01:34:10.056Z,-0.27
2019-02-24T01:35:11.016Z,-0.24
2019-02-24T01:36:11.699Z,-0.24
2019-02-24T01:37:11.826Z,-0.27
2019-02-24T01:38:12.507Z,-0.27
2019-02-24T01:39:13.192Z,-0.23
2019-02-24T01:40:14.436Z,-0.35
2019-02-24T01:41:15.833Z,-0.38
2019-02-24T01:42:15.513Z,-0.26
2019-02-24T01:43:16.196Z,-0.26
2019-02-24T01:44:16.875Z,-0.41
2019-02-24T01:45:18.116Z,-0.39
2019-02-24T01:46:17.798Z,-0.49
2019-02-24T01:47:18.924Z,-0.66
2019-02-24T01:48:21.891Z,-0.62
2019-02-24T01:49:20.300Z,-0.8
2019-02-24T01:50:20.983Z,-0.7
2019-02-24T01:51:22.371Z,-0.84
2019-02-24T01:52:22.048Z,-0.72
2019-02-24T01:53:23.451Z,-0.89
2019-02-24T01:54:24.134Z,-0.93
2019-02-24T01:55:24.924Z,-0.93
2019-02-24T01:56:25.324Z,-0.81
2019-02-24T01:57:26.004Z,-0.82
2019-02-24T01:58:38.710Z,-0.94
2019-02-24T01:59:39.535Z,-0.91
2019-02-24T02:00:39.956Z,-0.82
2019-02-24T02:01:40.234Z,-0.78
2019-02-24T02:02:41.358Z,-0.82
2019-02-24T02:03:42.045Z,-0.7
2019-02-24T02:04:42.448Z,-0.67
2019-02-24T02:05:43.410Z,-0.82
2019-02-24T02:06:43.683Z,-0.82
2019-02-24T02:07:44.088Z,-0.75
2019-02-24T02:08:44.499Z,-0.81
2019-02-24T02:09:45.649Z,-0.75
2019-02-24T02:10:46.778Z,-0.64
2019-02-24T02:11:47.734Z,-0.72
2019-02-24T02:12:48.693Z,-0.7
2019-02-24T02:13:49.152Z,-0.72
2019-02-24T02:14:50.111Z,-0.7
2019-02-24T02:15:51.234Z,-0.74
2019-02-24T02:16:51.637Z,-0.64
2019-02-24T02:17:52.760Z,-0.75
2019-02-24T02:18:53.924Z,-0.75
2019-02-24T02:19:54.449Z,-0.72
2019-02-24T02:20:54.854Z,-0.85
2019-02-24T02:21:55.255Z,-0.72
2019-02-24T02:22:56.227Z,-0.87
2019-02-24T02:23:56.630Z,-0.87
2019-02-24T02:24:57.807Z,-0.89
2019-02-24T02:25:58.933Z,-0.82
2019-02-24T02:27:00.341Z,-0.91
2019-02-24T02:28:01.033Z,-0.91
2019-02-24T02:29:01.713Z,-0.96
2019-02-24T02:30:03.194Z,-0.93
2019-02-24T02:31:03.545Z,-0.96
2019-02-24T02:32:04.253Z,-0.94
2019-02-24T02:33:04.250Z,-0.93
2019-02-24T02:34:05.480Z,-0.87
2019-02-24T02:35:05.721Z,-0.89
2019-02-24T02:36:06.124Z,-0.94
2019-02-24T02:37:07.540Z,-0.89
2019-02-24T02:38:08.506Z,-0.94
2019-02-24T02:39:08.477Z,-0.99
2019-02-24T02:40:09.404Z,-0.99
2019-02-24T02:41:09.812Z,-1.07
2019-02-24T02:42:10.493Z,-1.04
2019-02-24T02:43:10.920Z,-1.06
2019-02-24T02:44:11.600Z,-1.06
2019-02-24T02:45:12.006Z,-1.12
2019-02-24T02:46:12.992Z,-1.07
2019-02-24T02:47:13.698Z,-1.06
2019-02-24T02:48:14.939Z,-0.94
2019-02-24T02:49:15.357Z,-0.89
2019-02-24T02:50:17.037Z,-1
2019-02-24T02:51:17.277Z,-0.94
2019-02-24T02:52:18.273Z,-1.06
2019-02-24T02:53:18.399Z,-0.93
2019-02-24T02:54:19.364Z,-1.04
2019-02-24T02:55:19.621Z,-0.99
2019-02-24T02:56:20.163Z,-1.11
2019-02-24T02:57:20.428Z,-1.14
2019-02-24T02:58:22.393Z,-1.04
2019-02-24T02:59:22.352Z,-1.19
2019-02-24T03:00:23.834Z,-1.29
2019-02-24T03:01:24.351Z,-1.3
2019-02-24T03:02:25.780Z,-1.32
2019-02-24T03:03:26.917Z,-1.29
2019-02-24T03:04:27.171Z,-1.3
2019-02-24T03:05:27.854Z,-1.24
2019-02-24T03:06:28.827Z,-1.32
2019-02-24T03:07:29.541Z,-1.27
2019-02-24T03:08:30.225Z,-1.29
2019-02-24T03:09:31.631Z,-1.39
2019-02-24T03:10:33.013Z,-1.48
2019-02-24T03:11:33.012Z,-1.45
2019-02-24T03:12:34.459Z,-1.45
2019-02-24T03:13:35.419Z,-1.54
2019-02-24T03:14:36.675Z,-1.54
2019-02-24T03:15:36.831Z,-1.51
2019-02-24T03:16:37.803Z,-1.5
2019-02-24T03:17:38.494Z,-1.33
2019-02-24T03:18:38.922Z,-1.48
2019-02-24T03:19:40.438Z,-1.53
2019-02-24T03:20:40.118Z,-1.4
2019-02-24T03:21:41.077Z,-1.45
2019-02-24T03:22:41.769Z,-1.4
2019-02-24T03:23:42.465Z,-1.39
2019-02-24T03:24:42.719Z,-1.39
2019-02-24T03:25:42.962Z,-1.39
2019-02-24T03:26:43.439Z,-1.29
2019-02-24T03:27:43.993Z,-1.29
2019-02-24T03:28:44.253Z,-1.33
2019-02-24T03:29:44.489Z,-1.35
2019-02-24T03:30:45.616Z,-1.29
2019-02-24T03:31:47.282Z,-1.29
2019-02-24T03:32:48.381Z,-1.25
2019-02-24T03:33:49.861Z,-1.24
2019-02-24T03:34:49.672Z,-1.3
2019-02-24T03:35:50.690Z,-1.21
2019-02-24T03:36:50.651Z,-1.17
2019-02-24T03:37:51.056Z,-1.29
2019-02-24T03:38:51.749Z,-1.24
2019-02-24T03:39:52.269Z,-1.32
2019-02-24T03:40:53.215Z,-1.29
2019-02-24T03:41:53.622Z,-1.3
2019-02-24T03:42:54.923Z,-1.32
2019-02-24T03:43:55.328Z,-1.32
2019-02-24T03:44:56.573Z,-1.17
2019-02-24T03:45:56.527Z,-1.09
2019-02-24T03:46:57.654Z,-1.06
2019-02-24T03:47:58.343Z,-1.07
2019-02-24T03:48:58.752Z,-1.09
2019-02-24T03:49:59.495Z,-1.14
2019-02-24T03:51:00.629Z,-1.12
2019-02-24T03:52:01.596Z,-1.11
2019-02-24T03:53:02.885Z,-1.14
2019-02-24T03:54:03.127Z,-1.17
2019-02-24T03:55:04.646Z,-1.21
2019-02-24T03:56:05.446Z,-1.35
2019-02-24T03:57:06.148Z,-1.29
2019-02-24T03:58:06.663Z,-1.3
2019-02-24T03:59:19.361Z,-1.25
2019-02-24T04:00:20.156Z,-1.38
2019-02-24T04:01:20.872Z,-1.35
2019-02-24T04:02:22.118Z,-1.43
2019-02-24T04:03:22.631Z,-1.42
2019-02-24T04:04:23.354Z,-1.46
2019-02-24T04:05:23.761Z,-1.57
2019-02-24T04:06:25.071Z,-1.43
2019-02-24T04:07:25.514Z,-1.42
2019-02-24T04:08:26.214Z,-1.53
2019-02-24T04:09:27.172Z,-1.51
2019-02-24T04:10:27.835Z,-1.61
2019-02-24T04:11:28.536Z,-1.6
2019-02-24T04:12:29.224Z,-1.63
2019-02-24T04:13:30.480Z,-1.56
2019-02-24T04:14:30.894Z,-1.6
2019-02-24T04:15:31.854Z,-1.6
2019-02-24T04:16:32.557Z,-1.58
2019-02-24T04:17:33.264Z,-1.61
2019-02-24T04:18:34.260Z,-1.58
2019-02-24T04:19:35.946Z,-1.53
2019-02-24T04:20:36.311Z,-1.58
2019-02-24T04:21:37.713Z,-1.61
2019-02-24T04:22:38.673Z,-1.61
2019-02-24T04:23:39.636Z,-1.6
2019-02-24T04:24:40.331Z,-1.58
2019-02-24T04:25:41.018Z,-1.5
2019-02-24T04:26:41.422Z,-1.56
2019-02-24T04:27:41.828Z,-1.57
2019-02-24T04:28:42.790Z,-1.58
2019-02-24T04:29:43.753Z,-1.66
2019-02-24T04:30:44.753Z,-1.68
2019-02-24T04:31:45.155Z,-1.63
2019-02-24T04:32:45.564Z,-1.63
2019-02-24T04:33:46.863Z,-1.58
2019-02-24T04:34:47.847Z,-1.57
2019-02-24T04:35:48.840Z,-1.6
2019-02-24T04:36:49.326Z,-1.66
2019-02-24T04:37:49.451Z,-1.74
2019-02-24T04:38:50.410Z,-1.56
2019-02-24T04:39:51.130Z,-1.61
2019-02-24T04:40:51.507Z,-1.72
2019-02-24T04:41:52.200Z,-1.71
2019-02-24T04:42:52.715Z,-1.71
2019-02-24T04:43:53.122Z,-1.71
2019-02-24T04:44:54.158Z,-1.81
2019-02-24T04:45:54.841Z,-1.69
2019-02-24T04:46:55.244Z,-1.78
2019-02-24T04:47:56.206Z,-1.68
2019-02-24T04:48:56.913Z,-1.69
2019-02-24T04:49:57.875Z,-1.71
2019-02-24T04:50:58.138Z,-1.63
2019-02-24T04:51:59.133Z,-1.54
2019-02-24T04:53:00.109Z,-1.56
2019-02-24T04:54:00.513Z,-1.57
2019-02-24T04:55:01.205Z,-1.63
2019-02-24T04:56:02.445Z,-1.45
2019-02-24T04:57:02.714Z,-1.42
2019-02-24T04:58:03.225Z,-1.35
2019-02-24T04:59:04.189Z,-1.48
2019-02-24T05:00:04.875Z,-1.5
2019-02-24T05:01:06.544Z,-1.56
2019-02-24T05:02:07.546Z,-1.69
2019-02-24T05:03:07.510Z,-1.64
2019-02-24T05:04:08.531Z,-1.64
2019-02-24T05:05:08.831Z,-1.68
2019-02-24T05:06:10.092Z,-1.58
2019-02-24T05:07:10.909Z,-1.69
2019-02-24T05:08:11.605Z,-1.63
2019-02-24T05:09:12.414Z,-1.68
2019-02-24T05:10:12.935Z,-1.69
2019-02-24T05:11:13.042Z,-1.61
2019-02-24T05:12:13.726Z,-1.57
2019-02-24T05:13:15.242Z,-1.58
2019-02-24T05:14:15.493Z,-1.56
2019-02-24T05:15:15.906Z,-1.51
2019-02-24T05:16:16.486Z,-1.6
2019-02-24T05:17:17.726Z,-1.6
2019-02-24T05:18:18.409Z,-1.63
2019-02-24T05:19:19.371Z,-1.61
2019-02-24T05:20:21.332Z,-1.61
2019-02-24T05:21:21.505Z,-1.69
2019-02-24T05:22:22.463Z,-1.6
2019-02-24T05:23:23.759Z,-1.69
2019-02-24T05:24:24.165Z,-1.71
2019-02-24T05:25:25.123Z,-1.69
2019-02-24T05:26:25.080Z,-1.86
2019-02-24T05:27:26.484Z,-1.75
2019-02-24T05:28:27.183Z,-1.82
2019-02-24T05:29:28.153Z,-1.82
2019-02-24T05:30:28.976Z,-1.86
2019-02-24T05:31:30.102Z,-1.82
2019-02-24T05:32:30.788Z,-1.74
2019-02-24T05:33:32.198Z,-1.72
2019-02-24T05:34:33.436Z,-1.74
2019-02-24T05:35:33.956Z,-1.79
2019-02-24T05:36:34.367Z,-1.9
2019-02-24T05:37:34.765Z,-1.9
2019-02-24T05:38:35.449Z,-1.87
2019-02-24T05:39:36.428Z,-1.92
2019-02-24T05:40:36.667Z,-1.79
2019-02-24T05:41:37.499Z,-1.93
2019-02-24T05:42:37.738Z,-2
2019-02-24T05:43:38.453Z,-2.1
2019-02-24T05:44:38.983Z,-2.15
2019-02-24T05:45:40.544Z,-2.15
2019-02-24T05:46:40.673Z,-2.05
2019-02-24T05:47:41.917Z,-2.08
2019-02-24T05:48:42.892Z,-2.2
2019-02-24T05:49:43.153Z,-2.14
2019-02-24T05:50:44.573Z,-2.15
2019-02-24T05:51:45.216Z,-2.15
2019-02-24T05:52:46.176Z,-2.26
2019-02-24T05:53:46.746Z,-2.29
2019-02-24T05:54:47.431Z,-2.22
2019-02-24T05:55:48.393Z,-2.28
2019-02-24T05:56:48.600Z,-2.37
2019-02-24T05:57:49.563Z,-2.32
2019-02-24T05:58:49.977Z,-2.37
2019-02-24T05:59:56.952Z,-2.48
2019-02-24T06:00:02.745Z,-2.44
2019-02-24T06:01:02.869Z,-2.42
2019-02-24T06:02:04.120Z,-2.45
2019-02-24T06:03:05.085Z,-2.39
2019-02-24T06:04:06.086Z,-2.51
2019-02-24T06:05:07.059Z,-2.54
2019-02-24T06:06:07.475Z,-2.45
2019-02-24T06:07:08.161Z,-2.47
2019-02-24T06:08:09.878Z,-2.39
2019-02-24T06:09:10.009Z,-2.51
2019-02-24T06:10:10.697Z,-2.45
2019-02-24T06:11:12.387Z,-2.48
2019-02-24T06:12:13.077Z,-2.39
2019-02-24T06:13:13.492Z,-2.42
2019-02-24T06:14:14.793Z,-2.39
2019-02-24T06:15:16.030Z,-2.4
2019-02-24T06:16:16.437Z,-2.32
2019-02-24T06:17:16.711Z,-2.28
2019-02-24T06:18:18.292Z,-2.17
2019-02-24T06:19:19.251Z,-2.13
2019-02-24T06:20:19.935Z,-2.22
2019-02-24T06:21:21.320Z,-2.26
2019-02-24T06:22:21.448Z,-2.32
2019-02-24T06:23:22.411Z,-2.14
2019-02-24T06:24:22.863Z,-2.13
2019-02-24T06:25:24.700Z,-2.13
2019-02-24T06:26:25.041Z,-2.08
2019-02-24T06:27:25.472Z,-2.02
2019-02-24T06:28:26.919Z,-2
2019-02-24T06:29:27.918Z,-1.63
2019-02-24T06:30:29.448Z,-1.36
2019-02-24T06:31:29.119Z,-1.07
2019-02-24T06:32:30.084Z,-0.94
2019-02-24T06:33:31.052Z,-0.93
2019-02-24T06:34:31.737Z,-1.01
2019-02-24T06:35:32.151Z,-1.09
2019-02-24T06:36:32.559Z,-0.94
2019-02-24T06:37:34.249Z,-0.59
2019-02-24T06:38:35.233Z,-0.33
2019-02-24T06:39:35.921Z,-0.24
2019-02-24T06:40:37.163Z,-0.03
2019-02-24T06:41:38.402Z,-0.03
2019-02-24T06:42:39.394Z,0.01
2019-02-24T06:43:40.101Z,-0.07
2019-02-24T06:44:40.231Z,0.02
2019-02-24T06:45:41.643Z,0.16
2019-02-24T06:46:42.335Z,0.12
2019-02-24T06:47:43.579Z,0.19
2019-02-24T06:48:44.601Z,0.06
2019-02-24T06:49:45.293Z,0.06
2019-02-24T06:50:46.425Z,0.15
2019-02-24T06:51:47.388Z,0.19
2019-02-24T06:52:47.828Z,0.15
2019-02-24T06:53:47.974Z,0.11
2019-02-24T06:54:48.382Z,0.18
2019-02-24T06:55:50.070Z,0.18
2019-02-24T06:56:50.481Z,0.29
2019-02-24T06:57:50.891Z,0.36
2019-02-24T06:58:52.022Z,0.51
2019-02-24T06:59:52.712Z,0.58
2019-02-24T07:00:53.845Z,0.48
2019-02-24T07:01:54.978Z,0.4
2019-02-24T07:02:55.666Z,0.23
2019-02-24T07:03:56.358Z,0.64
2019-02-24T07:04:56.769Z,0.94
2019-02-24T07:05:57.771Z,1.18
2019-02-24T07:06:58.190Z,1.27
2019-02-24T07:07:59.169Z,1.32
2019-02-24T07:09:00.301Z,1.27
2019-02-24T07:10:01.452Z,1.3
2019-02-24T07:11:02.696Z,1.3
2019-02-24T07:12:02.134Z,1.38
2019-02-24T07:13:02.822Z,1.6
2019-02-24T07:14:02.786Z,1.57
2019-02-24T07:15:03.197Z,1.5
2019-02-24T07:16:04.438Z,1.34
2019-02-24T07:17:04.448Z,1.27
2019-02-24T07:18:05.175Z,1.28
2019-02-24T07:19:05.585Z,1.2
2019-02-24T07:20:06.568Z,1.22
2019-02-24T07:21:07.262Z,1.14
2019-02-24T07:22:07.682Z,1.18
2019-02-24T07:23:07.828Z,1.28
2019-02-24T07:24:08.530Z,1.4
2019-02-24T07:25:09.507Z,1.63
2019-02-24T07:26:09.916Z,1.92
2019-02-24T07:27:11.328Z,2.33
2019-02-24T07:28:12.303Z,2.58
2019-02-24T07:29:13.275Z,2.83
2019-02-24T07:30:25.760Z,3.56
2019-02-24T07:31:26.586Z,3.96
2019-02-24T07:32:27.556Z,4.57
2019-02-24T07:33:28.262Z,5.04
2019-02-24T07:34:28.235Z,5.52
2019-02-24T07:35:29.012Z,6.09
2019-02-24T07:36:30.262Z,5.99
2019-02-24T07:37:30.678Z,6.19
2019-02-24T07:38:31.666Z,6.43
2019-02-24T07:39:32.362Z,6.43
2019-02-24T07:40:32.506Z,6.41
2019-02-24T07:41:33.068Z,6.68
2019-02-24T07:42:33.488Z,6.89
2019-02-24T07:43:34.179Z,6.77
2019-02-24T07:44:35.427Z,6.77
2019-02-24T07:45:36.152Z,6.47
2019-02-24T07:46:37.122Z,6.16
2019-02-24T07:47:37.297Z,6.1
2019-02-24T07:48:37.714Z,5.94
2019-02-24T07:49:38.130Z,5.95
2019-02-24T07:50:38.824Z,6.07
2019-02-24T07:51:40.036Z,6.17
2019-02-24T07:52:40.176Z,6.12
2019-02-24T07:53:40.866Z,6.12
2019-02-24T07:54:42.282Z,6.22
2019-02-24T07:55:42.418Z,6.15
2019-02-24T07:56:42.843Z,6.35
2019-02-24T07:57:43.980Z,6.29
2019-02-24T07:58:44.951Z,6.35
2019-02-24T07:59:45.370Z,6.22
2019-02-24T08:00:46.784Z,6.19
2019-02-24T08:01:47.220Z,6.19
2019-02-24T08:02:48.192Z,6.17
2019-02-24T08:03:48.650Z,6.35
2019-02-24T08:04:49.348Z,6.57
2019-02-24T08:05:50.318Z,6.74
2019-02-24T08:06:50.730Z,6.93
2019-02-24T08:07:51.712Z,6.96
2019-02-24T08:08:52.681Z,7.19
2019-02-24T08:09:53.376Z,7.37
2019-02-24T08:10:53.795Z,7.44
2019-02-24T08:11:54.076Z,7.44
2019-02-24T08:12:54.773Z,7.47
2019-02-24T08:13:54.910Z,7.44
2019-02-24T08:14:55.329Z,7.66
2019-02-24T08:15:56.328Z,7.53
2019-02-24T08:16:56.745Z,7.46
2019-02-24T08:17:57.725Z,7.32
2019-02-24T08:18:58.143Z,7.19
2019-02-24T08:19:58.892Z,6.77
2019-02-24T08:21:00.305Z,6.5
2019-02-24T08:22:00.057Z,6.16
2019-02-24T08:23:00.471Z,6.07
2019-02-24T08:24:01.003Z,6.07
2019-02-24T08:25:02.260Z,6.31
2019-02-24T08:26:02.403Z,6.57
2019-02-24T08:27:03.821Z,6.78
2019-02-24T08:28:04.789Z,7.03
2019-02-24T08:29:04.927Z,7.37
2019-02-24T08:30:05.904Z,7.47
2019-02-24T08:31:07.598Z,7.55
2019-02-24T08:32:08.140Z,7.51
2019-02-24T08:33:09.396Z,7.75
2019-02-24T08:34:09.677Z,8.24
2019-02-24T08:35:10.098Z,8.6
2019-02-24T08:36:10.832Z,8.95
2019-02-24T08:37:11.557Z,9.12
2019-02-24T08:38:11.974Z,9.34
2019-02-24T08:39:12.670Z,9.36
2019-02-24T08:40:13.375Z,9.31
2019-02-24T08:41:14.075Z,8.93
2019-02-24T08:42:14.621Z,8.56
2019-02-24T08:43:15.313Z,8.28
2019-02-24T08:44:16.007Z,8.08
2019-02-24T08:45:16.426Z,8.35
2019-02-24T08:46:16.844Z,8.61
2019-02-24T08:47:17.982Z,9.03
2019-02-24T08:48:20.517Z,9.34
2019-02-24T08:49:20.656Z,9.59
2019-02-24T08:50:21.359Z,10.05
2019-02-24T08:51:24.593Z,10.62
2019-02-24T08:52:25.708Z,10.98
2019-02-24T08:53:26.684Z,11.22
2019-02-24T08:54:26.830Z,11.58
2019-02-24T08:55:27.251Z,12.17
2019-02-24T08:56:27.672Z,12.39
2019-02-24T08:57:29.091Z,12.99
2019-02-24T08:58:29.237Z,13.19
2019-02-24T08:59:29.682Z,13.24
2019-02-24T09:00:30.841Z,13.02
2019-02-24T09:01:32.278Z,12.76
2019-02-24T09:02:32.894Z,12.03
2019-02-24T09:03:34.039Z,11.12
2019-02-24T09:04:35.016Z,11.05
2019-02-24T09:05:35.165Z,11.01
2019-02-24T09:06:35.871Z,11.13
2019-02-24T09:07:35.854Z,11.63
2019-02-24T09:08:37.006Z,12.08
2019-02-24T09:09:37.985Z,12.21
2019-02-24T09:10:38.685Z,12.47
2019-02-24T09:11:39.676Z,12.78
2019-02-24T09:12:40.508Z,13.23
2019-02-24T09:13:40.935Z,13.52
2019-02-24T09:14:42.090Z,13.91
2019-02-24T09:15:43.796Z,14.2
2019-02-24T09:16:43.630Z,14.19
2019-02-24T09:17:44.130Z,13.67
2019-02-24T09:18:45.138Z,13.3
2019-02-24T09:19:46.142Z,13.05
2019-02-24T09:20:46.294Z,12.26
2019-02-24T09:21:47.276Z,11.55
2019-02-24T09:22:48.682Z,10.67
2019-02-24T09:23:49.670Z,9.84
2019-02-24T09:24:50.649Z,9.24
2019-02-24T09:25:51.349Z,9.22
2019-02-24T09:26:52.046Z,9.37
2019-02-24T09:27:52.749Z,10.1
2019-02-24T09:28:53.729Z,10.94
2019-02-24T09:29:54.162Z,11.45
2019-02-24T09:31:01.940Z,12.11
2019-02-24T09:31:06.685Z,12.23
2019-02-24T09:32:07.022Z,11.68
2019-02-24T09:33:07.769Z,11.78
2019-02-24T09:34:08.472Z,11.77
2019-02-24T09:35:09.615Z,11.65
2019-02-24T09:36:10.170Z,11.56
2019-02-24T09:37:10.612Z,11.53
2019-02-24T09:38:11.036Z,11.08
2019-02-24T09:39:11.509Z,11.08
2019-02-24T09:40:12.486Z,10.95
2019-02-24T09:41:12.970Z,10.89
2019-02-24T09:42:13.813Z,10.82
2019-02-24T09:43:14.515Z,10.57
2019-02-24T09:44:15.051Z,10.64
2019-02-24T09:45:15.231Z,10.65
2019-02-24T09:46:15.704Z,10.62
2019-02-24T09:47:16.433Z,10.65
2019-02-24T09:48:17.584Z,10.42
2019-02-24T09:49:18.284Z,10.1
2019-02-24T09:50:18.494Z,9.91
2019-02-24T09:51:18.914Z,9.74
2019-02-24T09:52:19.681Z,9.97
2019-02-24T09:53:20.112Z,10.15
2019-02-24T09:54:21.251Z,9.92
2019-02-24T09:55:21.950Z,9.59
2019-02-24T09:56:21.976Z,9.4
2019-02-24T09:57:22.673Z,9.03
2019-02-24T09:58:23.372Z,8.6
2019-02-24T09:59:24.514Z,8.35
2019-02-24T10:00:25.011Z,8.18
2019-02-24T10:01:25.438Z,8.16
2019-02-24T10:02:25.989Z,8.13
2019-02-24T10:03:27.410Z,8.35
2019-02-24T10:04:28.114Z,8.46
2019-02-24T10:05:28.810Z,8.75
2019-02-24T10:06:29.505Z,8.86
2019-02-24T10:07:30.234Z,9.02
2019-02-24T10:08:31.236Z,8.78
2019-02-24T10:09:31.944Z,8.46
2019-02-24T10:10:32.644Z,8.38
2019-02-24T10:11:33.669Z,8.17
2019-02-24T10:12:34.497Z,8.03
2019-02-24T10:13:35.758Z,7.98
2019-02-24T10:14:35.903Z,8.17
2019-02-24T10:15:36.613Z,8.68
2019-02-24T10:16:37.314Z,9.27
2019-02-24T10:17:38.015Z,9.84
2019-02-24T10:18:38.162Z,10.65
2019-02-24T10:19:39.149Z,11
2019-02-24T10:20:39.853Z,11.23
2019-02-24T10:21:40.555Z,11.91
2019-02-24T10:22:42.233Z,12.35
2019-02-24T10:23:42.936Z,12.87
2019-02-24T10:24:43.080Z,13.3
2019-02-24T10:25:44.336Z,13.78
2019-02-24T10:26:45.035Z,14.05
2019-02-24T10:27:45.015Z,14.19
2019-02-24T10:28:45.441Z,14.48
2019-02-24T10:29:46.054Z,14.66
2019-02-24T10:30:47.034Z,14.78
2019-02-24T10:31:48.027Z,15.17
2019-02-24T10:32:48.147Z,15.44
2019-02-24T10:33:48.648Z,15.51
2019-02-24T10:34:49.074Z,15.84
2019-02-24T10:35:50.221Z,16.06
2019-02-24T10:36:50.928Z,15.69
2019-02-24T10:37:51.624Z,15.84
2019-02-24T10:38:52.330Z,15.94
2019-02-24T10:39:53.040Z,15.91
2019-02-24T10:40:54.022Z,16.26
2019-02-24T10:41:55.006Z,16.16
2019-02-24T10:42:55.420Z,15.75
2019-02-24T10:43:55.843Z,16.13
2019-02-24T10:44:56.824Z,15.8
2019-02-24T10:45:57.256Z,15.51
2019-02-24T10:46:57.960Z,15.52
2019-02-24T10:47:58.398Z,15.3
2019-02-24T10:49:04.769Z,15.3
2019-02-24T10:49:10.490Z,15.3
2019-02-24T10:50:11.202Z,15.1
2019-02-24T10:51:11.909Z,15.05
2019-02-24T10:52:12.890Z,15.08
2019-02-24T10:53:14.039Z,15.15
2019-02-24T10:54:15.468Z,15.11
2019-02-24T10:55:16.453Z,15.29
2019-02-24T10:56:17.903Z,15.39
2019-02-24T10:57:19.050Z,15.43
2019-02-24T10:58:21.724Z,15.43
2019-02-24T10:59:19.710Z,15.23
2019-02-24T11:00:20.309Z,15.1
2019-02-24T11:01:34.645Z,15.14
2019-02-24T11:02:35.490Z,15.29
2019-02-24T11:03:36.641Z,15.54
2019-02-24T11:04:37.343Z,15.73
2019-02-24T11:05:37.821Z,15.91
2019-02-24T11:06:38.803Z,15.87
2019-02-24T11:07:39.295Z,15.69
2019-02-24T11:08:39.723Z,15.37
2019-02-24T11:09:40.871Z,14.86
2019-02-24T11:10:42.301Z,14.85
2019-02-24T11:11:42.726Z,15.05
2019-02-24T11:12:44.122Z,14.99
2019-02-24T11:13:44.551Z,15.19
2019-02-24T11:14:44.977Z,15.37
2019-02-24T11:15:46.010Z,15.47
2019-02-24T11:16:46.432Z,15.69
2019-02-24T11:17:47.435Z,15.76
2019-02-24T11:18:48.162Z,15.7
2019-02-24T11:19:48.316Z,15.26
2019-02-24T11:20:48.745Z,14.74
2019-02-24T11:21:49.895Z,14.36
2019-02-24T11:22:50.753Z,13.87
2019-02-24T11:23:51.456Z,13.76
2019-02-24T11:24:53.000Z,13.27
2019-02-24T11:25:52.701Z,13.28
2019-02-24T11:26:53.676Z,12.98
2019-02-24T11:27:54.096Z,12.83
2019-02-24T11:28:54.792Z,12.78
2019-02-24T11:29:55.510Z,12.63
2019-02-24T11:30:55.994Z,12.54
2019-02-24T11:31:58.431Z,12.45
2019-02-24T11:32:57.824Z,12.47
2019-02-24T11:33:58.519Z,12.5
2019-02-24T11:34:59.214Z,12.28
2019-02-24T11:36:00.066Z,12.25
2019-02-24T11:37:00.762Z,12
2019-02-24T11:38:01.180Z,11.85
2019-02-24T11:39:01.598Z,11.77
2019-02-24T11:40:02.751Z,11.71
2019-02-24T11:41:03.726Z,11.56
2019-02-24T11:42:04.145Z,11.6
2019-02-24T11:43:05.269Z,11.52
2019-02-24T11:44:05.969Z,11.58
2019-02-24T11:45:06.392Z,11.4
2019-02-24T11:46:07.395Z,11.26
2019-02-24T11:47:07.813Z,11.35
2019-02-24T11:48:08.790Z,11.35
2019-02-24T11:49:09.930Z,11.48
2019-02-24T11:50:10.349Z,11.53
2019-02-24T11:51:11.055Z,11.68
2019-02-24T11:52:11.475Z,11.53
2019-02-24T11:53:12.356Z,11.59
2019-02-24T11:54:13.609Z,11.58
2019-02-24T11:55:13.828Z,11.58
2019-02-24T11:56:15.249Z,11.55
2019-02-24T11:57:15.947Z,11.62
2019-02-24T11:58:17.202Z,11.56
2019-02-24T11:59:17.621Z,11.44
2019-02-24T12:00:18.070Z,11.59
2019-02-24T12:01:18.767Z,11.53
2019-02-24T12:02:19.906Z,11.56
2019-02-24T12:03:20.746Z,11.58
2019-02-24T12:04:20.441Z,11.33
2019-02-24T12:05:21.610Z,11.07
2019-02-24T12:06:22.749Z,10.87
2019-02-24T12:07:23.888Z,10.83
2019-02-24T12:08:25.583Z,10.76
2019-02-24T12:09:26.001Z,10.51
2019-02-24T12:10:26.460Z,10.24
2019-02-24T12:11:27.881Z,10.25
2019-02-24T12:12:28.299Z,10.24
2019-02-24T12:13:29.134Z,10.27
2019-02-24T12:14:29.552Z,10.24
2019-02-24T12:15:30.245Z,10.21
2019-02-24T12:16:30.666Z,10.15
2019-02-24T12:17:31.084Z,10.07
2019-02-24T12:18:32.543Z,10.02
2019-02-24T12:19:33.570Z,9.82
2019-02-24T12:20:33.991Z,9.69
2019-02-24T12:21:34.687Z,9.84
2019-02-24T12:22:34.943Z,9.82
2019-02-24T12:23:35.806Z,9.85
2019-02-24T12:24:36.534Z,9.82
2019-02-24T12:25:36.950Z,9.84
2019-02-24T12:26:37.370Z,9.85
2019-02-24T12:27:38.104Z,9.7
2019-02-24T12:28:38.804Z,9.69
2019-02-24T12:29:40.220Z,9.66
2019-02-24T12:30:40.635Z,9.66
2019-02-24T12:31:41.059Z,9.62
2019-02-24T12:32:42.060Z,9.73
2019-02-24T12:33:42.182Z,9.76
2019-02-24T12:34:43.711Z,9.69
2019-02-24T12:35:44.408Z,9.77
2019-02-24T12:36:45.101Z,9.72
2019-02-24T12:37:45.520Z,9.87
2019-02-24T12:38:46.665Z,9.92
2019-02-24T12:39:47.358Z,9.88
2019-02-24T12:40:47.774Z,10.05
2019-02-24T12:41:48.942Z,10.06
2019-02-24T12:42:49.384Z,10.09
2019-02-24T12:43:49.988Z,10.06
2019-02-24T12:44:51.242Z,10.28
2019-02-24T12:45:51.211Z,10.38
2019-02-24T12:46:51.910Z,10.38
2019-02-24T12:47:53.051Z,10.43
2019-02-24T12:48:54.029Z,10.71
2019-02-24T12:50:06.794Z,10.64
2019-02-24T12:51:07.907Z,10.68
2019-02-24T12:52:08.606Z,10.67
2019-02-24T12:53:10.025Z,10.65
2019-02-24T12:54:10.444Z,10.76
2019-02-24T12:55:11.153Z,10.76
2019-02-24T12:56:12.132Z,10.71
2019-02-24T12:57:13.263Z,10.57
2019-02-24T12:58:14.238Z,10.43
2019-02-24T12:59:14.384Z,10.57
2019-02-24T13:00:15.635Z,10.46
2019-02-24T13:01:15.472Z,10.51
2019-02-24T13:02:16.166Z,10.62
2019-02-24T13:03:28.932Z,10.65
2019-02-24T13:04:29.954Z,10.64
2019-02-24T13:05:30.762Z,10.64
2019-02-24T13:06:31.181Z,10.75
2019-02-24T13:07:31.877Z,10.65
2019-02-24T13:08:33.296Z,10.68
2019-02-24T13:09:35.306Z,10.68
2019-02-24T13:10:35.999Z,10.75